地図

経路データ

SID SEASON NUMBER BASIN SUBBASIN NAME ISO_TIME NATURE LAT LON WMO_WIND WMO_PRES WMO_AGENCY TRACK_TYPE DIST2LAND LANDFALL IFLAG USA_AGENCY USA_ATCF_ID USA_LAT USA_LON USA_RECORD USA_STATUS USA_WIND USA_PRES USA_SSHS USA_R34_NE USA_R34_SE USA_R34_SW USA_R34_NW USA_R50_NE USA_R50_SE USA_R50_SW USA_R50_NW USA_R64_NE USA_R64_SE USA_R64_SW USA_R64_NW USA_POCI USA_ROCI USA_RMW USA_EYE TOKYO_LAT TOKYO_LON TOKYO_GRADE TOKYO_WIND TOKYO_PRES TOKYO_R50_DIR TOKYO_R50_LONG TOKYO_R50_SHORT TOKYO_R30_DIR TOKYO_R30_LONG TOKYO_R30_SHORT TOKYO_LAND CMA_LAT CMA_LON CMA_CAT CMA_WIND CMA_PRES HKO_LAT HKO_LON HKO_CAT HKO_WIND HKO_PRES NEWDELHI_LAT NEWDELHI_LON NEWDELHI_GRADE NEWDELHI_WIND NEWDELHI_PRES NEWDELHI_CI NEWDELHI_DP NEWDELHI_POCI REUNION_LAT REUNION_LON REUNION_TYPE REUNION_WIND REUNION_PRES REUNION_TNUM REUNION_CI REUNION_RMW REUNION_R34_NE REUNION_R34_SE REUNION_R34_SW REUNION_R34_NW REUNION_R50_NE REUNION_R50_SE REUNION_R50_SW REUNION_R50_NW REUNION_R64_NE REUNION_R64_SE REUNION_R64_SW REUNION_R64_NW BOM_LAT BOM_LON BOM_TYPE BOM_WIND BOM_PRES BOM_TNUM BOM_CI BOM_RMW BOM_R34_NE BOM_R34_SE BOM_R34_SW BOM_R34_NW BOM_R50_NE BOM_R50_SE BOM_R50_SW BOM_R50_NW BOM_R64_NE BOM_R64_SE BOM_R64_SW BOM_R64_NW BOM_ROCI BOM_POCI BOM_EYE BOM_POS_METHOD BOM_PRES_METHOD NADI_LAT NADI_LON NADI_CAT NADI_WIND NADI_PRES WELLINGTON_LAT WELLINGTON_LON WELLINGTON_WIND WELLINGTON_PRES DS824_LAT DS824_LON DS824_STAGE DS824_WIND DS824_PRES TD9636_LAT TD9636_LON TD9636_STAGE TD9636_WIND TD9636_PRES TD9635_LAT TD9635_LON TD9635_WIND TD9635_PRES TD9635_ROCI NEUMANN_LAT NEUMANN_LON NEUMANN_CLASS NEUMANN_WIND NEUMANN_PRES MLC_LAT MLC_LON MLC_CLASS MLC_WIND MLC_PRES USA_GUST BOM_GUST BOM_GUST_PER REUNION_GUST REUNION_GUST_PER USA_SEAHGT USA_SEARAD_NE USA_SEARAD_SE USA_SEARAD_SW USA_SEARAD_NW STORM_SPEED STORM_DIR
1950284N16117 1950 89 WP MM NOT_NAMED 1950-10-11 06:00:00 TS 16.2000 116.700 main 321 321 __O___________ -1 16.2000 116.700 0 1006 8 269
1950284N16117 1950 89 WP MM NOT_NAMED 1950-10-11 09:00:00 TS 16.1903 116.260 main 364 354 __P___________ -1 16.1903 116.260 0 1006 3 295
1950284N16117 1950 89 WP MM NOT_NAMED 1950-10-11 12:00:00 TS 16.3250 116.425 main 354 354 __O_______O___ -1 16.2000 115.900 0 1006 16.7000 118.000 2 1 314
1950284N16117 1950 89 WP MM NOT_NAMED 1950-10-11 15:00:00 TS 16.2863 116.159 main 375 375 __P_______P___ -1 16.2424 115.670 0 1006 16.3741 117.136 2 6 258
1950284N16117 1950 89 WP MM NOT_NAMED 1950-10-11 18:00:00 TS 16.2043 115.855 main 406 406 __O_______P___ -1 16.3000 115.500 1 23 1006 16.0767 116.329 2 7 254
1950284N16117 1950 89 WP MM NOT_NAMED 1950-10-11 21:00:00 TS 16.0917 115.466 main 449 449 __P_______P___ -1 16.3425 115.300 1 23 1006 15.8408 115.633 2 7 258
1950284N16117 1950 89 WP MM NOT_NAMED 1950-10-12 00:00:00 TS 16.0500 115.100 main 491 491 __O_______O___ -1 16.4000 115.100 1 23 1006 15.7000 115.100 3 6 270
1950284N16117 1950 89 WP MM NOT_NAMED 1950-10-12 03:00:00 TS 16.0880 114.828 main 523 523 __P_______P___ -1 16.5000 114.893 1 26 1005 15.6760 114.764 3 5 285
1950284N16117 1950 89 WP MM NOT_NAMED 1950-10-12 06:00:00 TS 16.1717 114.639 main 523 508 __O_______P___ -1 16.6000 114.700 1 29 1004 15.7433 114.579 3 3 300
1950284N16117 1950 89 WP MM NOT_NAMED 1950-10-12 09:00:00 TS 16.2607 114.515 main 508 499 __P_______P___ -1 16.6575 114.550 1 29 1004 15.8640 114.479 3 3 308
1950284N16117 1950 89 WP MM NOT_NAMED 1950-10-12 12:00:00 TS 16.3500 114.400 main 492 475 __O_______O___ -1 16.7000 114.400 1 29 1004 16.0000 114.400 4 3 296
1950284N16117 1950 89 WP MM NOT_NAMED 1950-10-12 15:00:00 TS 16.3976 114.223 main 475 460 __P_______P___ -1 16.7350 114.200 1 29 1004 16.0602 114.247 4 4 289
1950284N16117 1950 89 WP MM NOT_NAMED 1950-10-12 18:00:00 TS 16.4662 114.050 main 451 436 __O_______P___ -1 16.8000 114.000 1 29 1004 16.1324 114.100 4 4 302
1950284N16117 1950 89 WP MM NOT_NAMED 1950-10-12 21:00:00 TS 16.5904 113.901 main 436 421 __P_______P___ -1 16.9425 113.850 1 29 1004 16.2384 113.953 4 4 315
1950284N16117 1950 89 WP MM NOT_NAMED 1950-10-13 00:00:00 TS 16.7500 113.750 main 414 390 __O_______O___ -1 17.1000 113.700 1 29 1004 16.4000 113.800 4 5 317
1950284N16117 1950 89 WP MM NOT_NAMED 1950-10-13 03:00:00 TS 16.9249 113.572 main 390 360 __P_______P___ -1 17.2075 113.493 1 29 1003 16.6424 113.652 4 5 318
1950284N16117 1950 89 WP MM NOT_NAMED 1950-10-13 06:00:00 TS 17.1199 113.397 main 360 340 __O_______P___ -1 17.3000 113.300 1 29 1002 16.9398 113.495 4 5 324
1950284N16117 1950 89 WP MM NOT_NAMED 1950-10-13 09:00:00 TS 17.3261 113.265 main 340 310 __P_______P___ -1 17.3849 113.215 1 29 1001 17.2673 113.315 4 5 327
1950284N16117 1950 89 WP MM NOT_NAMED 1950-10-13 12:00:00 TS 17.5500 113.100 main 305 276 __O_______O___ -1 17.5000 113.100 1 29 1000 17.6000 113.100 2 6 320
1950284N16117 1950 89 WP MM NOT_NAMED 1950-10-13 15:00:00 TS 17.8030 112.839 main 267 224 __P_______P___ -1 17.6775 112.838 1 29 1000 17.9285 112.840 2 8 314
1950284N16117 1950 89 WP MM NOT_NAMED 1950-10-13 18:00:00 TS 18.0763 112.523 main 224 185 __O_______P___ -1 17.9000 112.500 1 29 1000 18.2525 112.545 2 8 311
1950284N16117 1950 89 WP MM NOT_NAMED 1950-10-13 21:00:00 TS 18.3464 112.193 main 185 143 __P_______P___ -1 18.1425 112.157 1 29 1000 18.5503 112.228 2 8 309
1950284N16117 1950 89 WP MM NOT_NAMED 1950-10-14 00:00:00 TS 18.6000 111.850 main 143 97 __O_______O___ -1 18.4000 111.800 1 29 1000 18.8000 111.900 2 8 306
1950284N16117 1950 89 WP MM NOT_NAMED 1950-10-14 03:00:00 TS 18.8187 111.516 main 97 63 __P_______P___ -1 18.6499 111.450 1 29 1000 18.9874 111.582 2 8 303
1950284N16117 1950 89 WP MM NOT_NAMED 1950-10-14 06:00:00 TS 19.0124 111.179 main 63 30 __O_______P___ -1 18.9000 111.100 1 29 1000 19.1248 111.257 2 7 301
1950284N16117 1950 89 WP MM NOT_NAMED 1950-10-14 09:00:00 TS 19.1949 110.847 main 23 0 __P_______P___ -1 19.1648 110.765 1 29 1001 19.2249 110.929 2 7 298
1950284N16117 1950 89 WP MM NOT_NAMED 1950-10-14 12:00:00 TS 19.3500 110.500 main 0 0 __O_______O___ -1 19.4000 110.400 1 29 1002 19.3000 110.600 2 7 291
1950284N16117 1950 89 WP MM NOT_NAMED 1950-10-14 15:00:00 TS 19.4593 110.123 main 0 0 __P_______P___ -1 19.5574 109.972 1 26 1002 19.3612 110.273 2 8 287
1950284N16117 1950 89 WP MM NOT_NAMED 1950-10-14 18:00:00 TS 19.5770 109.692 main 0 0 __O_______P___ -1 19.7000 109.500 1 23 1002 19.4129 109.948 2 9 287
1950284N16117 1950 89 WP MM NOT_NAMED 1950-10-14 21:00:00 TS 19.7177 109.213 main 0 0 __P_______P___ -1 19.8474 109.007 1 23 1003 19.4582 109.624 2 10 292
1950284N16117 1950 89 WP MM NOT_NAMED 1950-10-15 00:00:00 TS 19.9500 108.700 main 59 49 __O_______O___ -1 20.1000 108.500 1 23 1004 19.5000 109.300 2 14 306
1950284N16117 1950 89 WP MM NOT_NAMED 1950-10-15 03:00:00 TS 20.5428 107.999 main 83 10 __P___________ -1 20.5428 107.999 1 21 1004 2 16 316
1950284N16117 1950 89 WP MM NOT_NAMED 1950-10-15 06:00:00 TS 21.1000 107.500 main 10 __O___________ -1 21.1000 107.500 0 19 1004 2 15 320

デジタル台風データ・検索

IBTrACS Databaseについて

本データベースは、米国NOAAが公開する1842年以降の世界の熱帯低気圧のベストトラックデータアーカイブInternational Best Track Archive for Climate Stewardship (IBTrACS)を、ウェブで閲覧しやすい形式に変換したものです。

最終更新日:2021-10-21